Fernville, Pennsylvania
Current Conditions -  °F | °C
As of 10:55 AM on Friday 28 Nov 2014 (Local Time) from KHZL Reporting Station
Overcast Overcast  
Wind Chill: 15°   Ceiling: 3200
Heat Index: 27°   Visibility: 10mi
Dew Point: 14°   Wind: 14mph
Humidity: 59%   Direction: 290°WNW
Pressure: 30.18"   Gusts: NA
Location:  41.0301°N, 76.4558°W
Report Text: KHZL 281555Z AUTO 29012KT 10SM OVC032 M03/M10 A3018 RMK AO2
Loading
Personal Weather Stations






























Interactive Weather Map New forecast layout! Learn more

10-Day Weather Forecast

Advertisements
Track Severe Weather on mobile